Time;durP1;ratioP1;P1;durP2;ratioP2;P2;SDS_P1;SDS_P2;PMS_P1;PMS_P2;Temp;Humidity;BMP_temperature;BMP_pressure;BME280_temperature;BME280_humidity;BME280_pressure;Samples;Min_cycle;Max_cycle;Signal;HPM_P1;HPM_P2
2023/07/21 00:00:23;;;;;;;4.18;2.88;;;;;;;;;;4946751;28;20034;-85
2023/07/21 00:02:49;;;;;;;5.30;2.53;;;;;;;;;;4978354;28;20042;-85
2023/07/21 00:05:16;;;;;;;5.75;2.88;;;;;;;;;;4972523;28;20488;-83
2023/07/21 00:07:42;;;;;;;5.55;2.95;;;;;;;;;;4961370;28;20129;-84
2023/07/21 00:10:09;;;;;;;4.60;3.20;;;;;;;;;;4975525;28;20104;-84
2023/07/21 00:12:37;;;;;;;5.68;2.88;;;;;;;;;;4976867;28;20837;-84
2023/07/21 00:15:04;;;;;;;3.90;2.85;;;;;;;;;;4977698;28;20034;-84
2023/07/21 00:17:31;;;;;;;5.28;2.50;;;;;;;;;;4960710;28;20038;-84
2023/07/21 00:20:06;;;;;;;5.35;3.30;;;;;;;;;;4977779;28;20509;-84
2023/07/21 00:22:33;;;;;;;5.15;2.70;;;;;;;;;;4962855;28;20042;-84
2023/07/21 00:25:00;;;;;;;5.47;3.30;;;;;;;;;;4961776;28;20061;-84
2023/07/21 00:27:27;;;;;;;5.88;3.17;;;;;;;;;;4998844;28;20042;-84
2023/07/21 00:29:53;;;;;;;5.45;2.95;;;;;;;;;;4961660;28;20050;-84
2023/07/21 00:32:19;;;;;;;7.43;3.13;;;;;;;;;;4962101;28;20042;-84
2023/07/21 00:34:46;;;;;;;5.57;3.15;;;;;;;;;;4968165;28;20045;-84
2023/07/21 00:37:14;;;;;;;4.88;3.05;;;;;;;;;;4981087;28;20711;-84
2023/07/21 00:39:40;;;;;;;5.53;2.97;;;;;;;;;;4974505;28;20043;-84
2023/07/21 00:42:07;;;;;;;6.22;3.03;;;;;;;;;;4961705;28;20054;-84
2023/07/21 00:44:36;;;;;;;5.00;3.45;;;;;;;;;;4962836;28;20042;-84
2023/07/21 00:47:02;;;;;;;5.93;3.50;;;;;;;;;;4981563;28;20499;-85
2023/07/21 00:49:29;;;;;;;4.43;2.75;;;;;;;;;;4975516;28;20059;-85
2023/07/21 00:51:55;;;;;;;5.13;3.15;;;;;;;;;;4946178;28;20435;-85
2023/07/21 00:54:22;;;;;;;4.78;3.20;;;;;;;;;;4974221;28;20118;-85
2023/07/21 00:56:48;;;;;;;5.03;2.90;;;;;;;;;;4960763;28;20038;-85
2023/07/21 00:59:15;;;;;;;6.57;4.00;;;;;;;;;;4979555;28;20057;-85
2023/07/21 01:01:41;;;;;;;5.93;3.50;;;;;;;;;;4976269;28;20042;-85
2023/07/21 01:04:07;;;;;;;4.05;3.03;;;;;;;;;;4960420;28;20094;-85
2023/07/21 01:06:36;;;;;;;7.90;3.92;;;;;;;;;;4957277;28;20125;-84
2023/07/21 01:09:06;;;;;;;6.65;3.70;;;;;;;;;;4975595;28;20038;-85
2023/07/21 01:11:35;;;;;;;4.90;3.05;;;;;;;;;;4975635;28;20038;-85
2023/07/21 01:14:04;;;;;;;5.38;3.55;;;;;;;;;;4957233;28;20403;-85
2023/07/21 01:16:32;;;;;;;6.07;3.33;;;;;;;;;;4974799;28;20126;-84
2023/07/21 01:18:59;;;;;;;6.18;4.03;;;;;;;;;;4989269;28;20073;-85
2023/07/21 01:21:40;;;;;;;5.85;3.97;;;;;;;;;;4992288;28;20046;-85
2023/07/21 01:24:14;;;;;;;4.82;3.35;;;;;;;;;;4971620;28;20078;-84
2023/07/21 01:26:42;;;;;;;6.70;3.65;;;;;;;;;;4963826;28;20094;-84
2023/07/21 01:29:08;;;;;;;6.60;4.15;;;;;;;;;;4957073;28;20085;-84
2023/07/21 01:31:35;;;;;;;7.15;4.40;;;;;;;;;;4975659;28;20177;-84
2023/07/21 01:34:01;;;;;;;5.75;2.85;;;;;;;;;;4970818;28;20050;-85
2023/07/21 01:36:28;;;;;;;4.85;3.92;;;;;;;;;;4974875;28;20042;-85
2023/07/21 01:38:54;;;;;;;6.70;4.28;;;;;;;;;;4960221;28;20034;-85
2023/07/21 01:41:21;;;;;;;13.25;3.60;;;;;;;;;;4956545;28;20121;-85
2023/07/21 01:43:48;;;;;;;4.47;3.00;;;;;;;;;;4975291;28;20038;-84
2023/07/21 01:46:15;;;;;;;8.00;3.80;;;;;;;;;;4958955;28;20046;-84
2023/07/21 01:48:43;;;;;;;8.95;3.92;;;;;;;;;;4991409;28;20343;-84
2023/07/21 01:51:10;;;;;;;5.28;3.40;;;;;;;;;;4943620;28;20097;-85
2023/07/21 01:53:37;;;;;;;5.57;4.13;;;;;;;;;;4943661;28;20038;-85
2023/07/21 01:56:06;;;;;;;7.00;3.83;;;;;;;;;;4991518;28;20034;-85
2023/07/21 01:58:34;;;;;;;5.72;3.25;;;;;;;;;;4990292;28;20038;-84
2023/07/21 02:01:02;;;;;;;4.82;3.50;;;;;;;;;;4993943;28;20049;-85
2023/07/21 02:03:28;;;;;;;5.60;3.55;;;;;;;;;;4976325;28;20502;-85
2023/07/21 02:05:54;;;;;;;4.90;3.50;;;;;;;;;;4945474;28;20045;-86
2023/07/21 02:08:21;;;;;;;5.60;3.63;;;;;;;;;;4974844;28;20108;-85
2023/07/21 02:10:48;;;;;;;8.25;4.22;;;;;;;;;;4958799;28;20070;-85
2023/07/21 02:13:15;;;;;;;6.00;3.60;;;;;;;;;;4991472;28;20430;-85
2023/07/21 02:15:41;;;;;;;7.53;4.10;;;;;;;;;;4946315;28;20042;-85
2023/07/21 02:18:07;;;;;;;5.32;3.40;;;;;;;;;;4959647;28;20117;-85
2023/07/21 02:20:33;;;;;;;4.70;3.17;;;;;;;;;;4958344;28;20660;-85
2023/07/21 02:23:00;;;;;;;5.88;4.07;;;;;;;;;;4951994;28;20042;-85
2023/07/21 02:25:26;;;;;;;5.63;3.03;;;;;;;;;;4956556;28;20050;-84
2023/07/21 02:27:52;;;;;;;6.45;3.70;;;;;;;;;;4975133;28;20048;-85
2023/07/21 02:30:18;;;;;;;4.45;3.50;;;;;;;;;;4956928;28;20133;-85
2023/07/21 02:32:44;;;;;;;4.88;3.40;;;;;;;;;;4958913;28;20048;-85
2023/07/21 02:35:11;;;;;;;5.97;3.70;;;;;;;;;;4941801;28;20434;-85
2023/07/21 02:37:37;;;;;;;6.40;3.30;;;;;;;;;;4975528;28;20097;-85
2023/07/21 02:40:06;;;;;;;5.25;3.55;;;;;;;;;;4958560;28;20042;-85
2023/07/21 02:42:32;;;;;;;5.22;4.38;;;;;;;;;;4943866;28;20069;-85
2023/07/21 02:44:58;;;;;;;5.57;3.25;;;;;;;;;;4959141;28;20097;-86
2023/07/21 02:47:25;;;;;;;5.00;3.90;;;;;;;;;;4945681;28;20395;-85
2023/07/21 02:49:51;;;;;;;5.13;3.13;;;;;;;;;;4976183;28;20247;-84
2023/07/21 02:52:17;;;;;;;4.22;3.35;;;;;;;;;;4972337;28;20127;-84
2023/07/21 02:54:43;;;;;;;5.78;3.78;;;;;;;;;;4942932;28;20061;-84
2023/07/21 02:57:09;;;;;;;5.55;3.20;;;;;;;;;;4958657;28;20073;-84
2023/07/21 02:59:36;;;;;;;5.50;3.58;;;;;;;;;;4958697;28;20108;-84
2023/07/21 03:02:02;;;;;;;6.65;3.30;;;;;;;;;;4968574;28;20104;-84
2023/07/21 03:04:29;;;;;;;6.68;3.83;;;;;;;;;;4967109;28;20038;-84
2023/07/21 03:06:55;;;;;;;4.57;3.42;;;;;;;;;;4971345;28;20045;-84
2023/07/21 03:09:21;;;;;;;6.55;4.07;;;;;;;;;;4972428;28;20993;-84
2023/07/21 03:11:47;;;;;;;4.72;3.38;;;;;;;;;;4951280;28;20089;-84
2023/07/21 03:14:14;;;;;;;4.85;3.63;;;;;;;;;;4976362;28;20042;-84
2023/07/21 03:16:40;;;;;;;11.27;4.43;;;;;;;;;;4942268;28;20042;-83
2023/07/21 03:19:07;;;;;;;5.43;4.20;;;;;;;;;;4974455;28;20035;-84
2023/07/21 03:21:33;;;;;;;7.13;3.90;;;;;;;;;;4969042;28;20045;-83
2023/07/21 03:23:59;;;;;;;6.40;3.85;;;;;;;;;;4990741;28;20042;-84
2023/07/21 03:26:28;;;;;;;6.80;4.78;;;;;;;;;;4958486;28;20108;-84
2023/07/21 03:28:55;;;;;;;6.03;4.10;;;;;;;;;;4975741;28;20486;-84
2023/07/21 03:31:21;;;;;;;5.90;3.90;;;;;;;;;;4946249;28;20045;-83
2023/07/21 03:33:48;;;;;;;4.60;3.42;;;;;;;;;;4959568;28;20042;-84
2023/07/21 03:36:14;;;;;;;7.07;4.03;;;;;;;;;;4958851;28;20125;-84
2023/07/21 03:38:41;;;;;;;5.90;3.53;;;;;;;;;;4943638;28;20038;-84
2023/07/21 03:41:08;;;;;;;5.22;3.65;;;;;;;;;;4955632;28;20407;-84
2023/07/21 03:43:35;;;;;;;5.18;3.20;;;;;;;;;;4944170;28;20057;-85
2023/07/21 03:46:02;;;;;;;4.88;3.53;;;;;;;;;;4965082;28;20510;-84
2023/07/21 03:48:29;;;;;;;5.90;3.70;;;;;;;;;;4978320;28;20097;-84
2023/07/21 03:50:59;;;;;;;5.28;3.60;;;;;;;;;;4958146;28;20583;-83
2023/07/21 03:53:25;;;;;;;5.03;3.40;;;;;;;;;;4959873;28;20046;-83
2023/07/21 03:55:51;;;;;;;5.55;3.40;;;;;;;;;;4957860;28;20050;-84
2023/07/21 03:58:17;;;;;;;6.25;3.78;;;;;;;;;;4958064;28;20069;-83
2023/07/21 04:00:44;;;;;;;4.22;3.00;;;;;;;;;;4958279;28;20532;-84
2023/07/21 04:03:10;;;;;;;7.13;3.70;;;;;;;;;;4957415;28;20046;-84
2023/07/21 04:05:36;;;;;;;6.57;3.80;;;;;;;;;;4969753;28;20344;-84
2023/07/21 04:08:03;;;;;;;6.18;3.80;;;;;;;;;;4942202;28;20049;-84
2023/07/21 04:10:30;;;;;;;6.35;3.80;;;;;;;;;;4974288;28;20166;-84
2023/07/21 04:12:56;;;;;;;4.93;3.78;;;;;;;;;;4956872;28;20046;-85
2023/07/21 04:15:26;;;;;;;9.15;4.20;;;;;;;;;;4971776;28;20039;-84
2023/07/21 04:17:52;;;;;;;4.53;3.60;;;;;;;;;;4989695;28;20049;-84
2023/07/21 04:20:18;;;;;;;6.32;3.78;;;;;;;;;;4973890;28;20056;-84
2023/07/21 04:22:45;;;;;;;7.60;4.38;;;;;;;;;;4973502;28;20077;-84
2023/07/21 04:25:11;;;;;;;6.07;4.00;;;;;;;;;;4954702;28;20049;-85
2023/07/21 04:27:38;;;;;;;4.78;3.60;;;;;;;;;;4953202;28;20043;-85
2023/07/21 04:30:04;;;;;;;7.65;4.43;;;;;;;;;;4969395;28;20573;-85
2023/07/21 04:32:30;;;;;;;7.28;4.13;;;;;;;;;;4957414;28;20038;-84
2023/07/21 04:34:57;;;;;;;5.60;4.20;;;;;;;;;;4956882;28;20070;-85
2023/07/21 04:37:23;;;;;;;9.18;4.25;;;;;;;;;;4975621;28;20125;-84
2023/07/21 04:39:49;;;;;;;5.15;3.88;;;;;;;;;;4972557;28;20068;-84
2023/07/21 04:42:15;;;;;;;5.32;3.55;;;;;;;;;;4941538;28;20046;-84
2023/07/21 04:44:43;;;;;;;7.68;3.95;;;;;;;;;;4973546;28;20461;-84
2023/07/21 04:47:09;;;;;;;4.80;3.65;;;;;;;;;;4976612;28;20053;-84
2023/07/21 04:49:35;;;;;;;6.18;3.50;;;;;;;;;;4960641;28;20576;-85
2023/07/21 04:52:02;;;;;;;6.07;3.97;;;;;;;;;;4976841;28;20047;-84
2023/07/21 04:54:28;;;;;;;6.35;4.18;;;;;;;;;;4960792;28;20034;-84
2023/07/21 04:56:55;;;;;;;6.38;4.00;;;;;;;;;;4974993;28;20045;-84
2023/07/21 04:59:21;;;;;;;7.50;3.92;;;;;;;;;;4960950;28;20361;-85
2023/07/21 05:01:47;;;;;;;4.90;3.60;;;;;;;;;;4976969;28;20049;-84
2023/07/21 05:04:19;;;;;;;5.00;3.95;;;;;;;;;;4992563;28;20049;-85
2023/07/21 05:06:49;;;;;;;4.38;3.65;;;;;;;;;;4982470;28;20050;-84
2023/07/21 05:09:15;;;;;;;6.15;4.25;;;;;;;;;;4974155;28;20050;-84
2023/07/21 05:11:42;;;;;;;6.90;3.30;;;;;;;;;;4958034;28;20065;-84
2023/07/21 05:14:08;;;;;;;7.65;4.55;;;;;;;;;;4972854;28;20467;-84
2023/07/21 05:16:37;;;;;;;6.05;3.60;;;;;;;;;;4992187;28;20048;-83
2023/07/21 05:19:04;;;;;;;6.28;3.63;;;;;;;;;;4959944;28;20040;-84
2023/07/21 05:21:30;;;;;;;6.43;3.65;;;;;;;;;;4962056;28;20065;-83
2023/07/21 05:23:56;;;;;;;8.38;4.05;;;;;;;;;;4955827;28;20058;-83
2023/07/21 05:26:23;;;;;;;7.03;4.15;;;;;;;;;;4956529;28;20413;-84
2023/07/21 05:28:50;;;;;;;6.47;4.30;;;;;;;;;;4972897;28;20060;-81
2023/07/21 05:31:16;;;;;;;6.85;4.43;;;;;;;;;;4985812;28;20046;-85
2023/07/21 05:33:42;;;;;;;4.80;3.30;;;;;;;;;;4963069;28;20122;-85
2023/07/21 05:36:10;;;;;;;6.25;3.85;;;;;;;;;;4962195;28;20038;-85
2023/07/21 05:38:37;;;;;;;6.28;3.80;;;;;;;;;;4973760;28;20046;-85
2023/07/21 05:41:04;;;;;;;4.68;3.20;;;;;;;;;;4951152;28;20057;-83
2023/07/21 05:43:31;;;;;;;4.78;2.97;;;;;;;;;;4991917;28;20042;-83
2023/07/21 05:45:57;;;;;;;7.72;4.40;;;;;;;;;;4959483;28;20057;-84
2023/07/21 05:48:27;;;;;;;5.60;3.60;;;;;;;;;;4966094;28;20046;-83
2023/07/21 05:50:53;;;;;;;6.53;4.22;;;;;;;;;;4974170;28;20050;-88
2023/07/21 05:53:19;;;;;;;7.00;4.78;;;;;;;;;;4974976;28;20096;-83
2023/07/21 05:55:46;;;;;;;8.05;4.72;;;;;;;;;;4974385;28;20054;-83
2023/07/21 05:58:12;;;;;;;8.15;4.78;;;;;;;;;;4989493;28;20042;-83
2023/07/21 06:00:39;;;;;;;6.82;4.07;;;;;;;;;;4974995;28;20080;-83
2023/07/21 06:03:05;;;;;;;6.35;3.72;;;;;;;;;;4941078;28;20399;-83
2023/07/21 06:05:36;;;;;;;5.50;3.97;;;;;;;;;;4988154;28;20045;-83
2023/07/21 06:08:06;;;;;;;10.25;4.20;;;;;;;;;;4971574;28;20605;-83
2023/07/21 06:10:34;;;;;;;8.18;4.35;;;;;;;;;;4941283;28;20039;-83
2023/07/21 06:13:00;;;;;;;5.15;3.58;;;;;;;;;;4971512;28;20038;-86
2023/07/21 06:15:26;;;;;;;6.18;3.58;;;;;;;;;;4972758;28;20372;-85
2023/07/21 06:17:52;;;;;;;6.65;4.60;;;;;;;;;;4955433;28;20045;-84
2023/07/21 06:20:23;;;;;;;6.25;3.20;;;;;;;;;;4989386;28;20053;-84
2023/07/21 06:22:50;;;;;;;5.63;3.78;;;;;;;;;;4970418;28;20134;-83
2023/07/21 06:25:18;;;;;;;5.45;3.50;;;;;;;;;;4941438;28;20069;-81
2023/07/21 06:27:46;;;;;;;7.70;4.05;;;;;;;;;;4954929;28;20054;-82
2023/07/21 06:30:13;;;;;;;4.63;3.03;;;;;;;;;;4958530;28;20039;-81
2023/07/21 06:32:43;;;;;;;5.45;3.45;;;;;;;;;;4968686;28;20039;-82
2023/07/21 06:35:12;;;;;;;5.18;3.30;;;;;;;;;;5003546;28;20485;-82
2023/07/21 06:37:38;;;;;;;3.58;2.55;;;;;;;;;;4964636;28;20128;-84
2023/07/21 06:40:09;;;;;;;5.38;2.85;;;;;;;;;;4954441;28;20498;-84
2023/07/21 06:42:38;;;;;;;4.28;2.20;;;;;;;;;;4964741;28;20069;-84
2023/07/21 06:45:09;;;;;;;4.07;2.40;;;;;;;;;;4991213;28;20061;-85
2023/07/21 06:47:35;;;;;;;3.08;2.10;;;;;;;;;;4956563;28;20102;-84
2023/07/21 06:50:02;;;;;;;5.70;2.22;;;;;;;;;;4955514;28;20109;-83
2023/07/21 06:52:28;;;;;;;5.15;2.70;;;;;;;;;;4958571;28;20386;-83
2023/07/21 06:54:55;;;;;;;4.47;2.10;;;;;;;;;;4956791;28;20509;-83
2023/07/21 06:57:21;;;;;;;3.65;2.08;;;;;;;;;;4973911;28;20220;-83
2023/07/21 06:59:48;;;;;;;5.13;1.70;;;;;;;;;;4973154;28;20043;-83
2023/07/21 07:02:15;;;;;;;5.13;2.08;;;;;;;;;;4956543;28;20372;-82
2023/07/21 07:04:41;;;;;;;3.95;2.47;;;;;;;;;;4956479;28;20053;-83
2023/07/21 07:07:08;;;;;;;3.22;2.17;;;;;;;;;;4940272;28;20117;-84
2023/07/21 07:09:34;;;;;;;4.50;2.20;;;;;;;;;;4977991;28;20480;-83
2023/07/21 07:12:01;;;;;;;3.50;2.45;;;;;;;;;;4955847;28;20046;-83
2023/07/21 07:14:27;;;;;;;2.17;1.65;;;;;;;;;;4954352;28;20132;-83
2023/07/21 07:16:55;;;;;;;4.22;2.90;;;;;;;;;;4968397;28;20041;-83
2023/07/21 07:19:22;;;;;;;4.75;3.17;;;;;;;;;;4959515;28;20395;-83
2023/07/21 07:21:48;;;;;;;4.40;1.85;;;;;;;;;;4966339;28;20065;-83
2023/07/21 07:24:14;;;;;;;4.20;2.30;;;;;;;;;;4967831;28;20046;-84
2023/07/21 07:26:41;;;;;;;4.93;2.60;;;;;;;;;;4979121;28;20038;-82
2023/07/21 07:29:07;;;;;;;3.58;2.00;;;;;;;;;;4988010;28;20217;-81
2023/07/21 07:31:34;;;;;;;3.50;2.25;;;;;;;;;;4969341;28;20089;-82
2023/07/21 07:34:00;;;;;;;5.07;2.72;;;;;;;;;;4952313;28;20169;-82
2023/07/21 07:36:26;;;;;;;3.13;2.13;;;;;;;;;;4970413;28;20085;-82
2023/07/21 07:38:52;;;;;;;5.18;2.55;;;;;;;;;;4972467;28;20383;-82
2023/07/21 07:41:18;;;;;;;2.35;1.67;;;;;;;;;;4956848;28;20057;-82
2023/07/21 07:43:45;;;;;;;3.85;2.33;;;;;;;;;;4970088;28;20476;-82
2023/07/21 07:46:11;;;;;;;3.25;2.72;;;;;;;;;;4986704;28;20105;-83
2023/07/21 07:48:38;;;;;;;3.83;2.50;;;;;;;;;;4980401;28;20100;-82
2023/07/21 07:51:05;;;;;;;2.22;1.50;;;18.60;85.00;;;;;;4954470;28;20050;-83
2023/07/21 07:53:31;;;;;;;2.25;1.10;;;18.10;95.60;;;;;;4968205;28;20046;-82
2023/07/21 07:55:57;;;;;;;2.13;1.52;;;18.10;95.40;;;;;;4985738;28;20038;-82
2023/07/21 07:58:23;;;;;;;3.38;1.60;;;18.20;95.30;;;;;;4950876;28;20038;-82
2023/07/21 08:00:48;;;;;;;1.70;1.17;;;18.20;95.10;;;;;;4957010;28;20042;-81
2023/07/21 08:03:15;;;;;;;2.33;1.63;;;;;;;;;;4970112;28;20074;-82
2023/07/21 08:05:41;;;;;;;3.38;1.83;;;;;;;;;;4987368;28;20046;-81
2023/07/21 08:08:09;;;;;;;1.88;1.30;;;18.30;94.90;;;;;;4984753;28;20173;-82
2023/07/21 08:10:35;;;;;;;3.90;1.85;;;;;;;;;;4970671;28;20042;-81
2023/07/21 08:13:04;;;;;;;3.53;1.83;;;;;;;;;;4971093;28;20034;-81
2023/07/21 08:15:30;;;;;;;1.63;1.05;;;;;;;;;;4988862;28;20078;-81
2023/07/21 08:17:56;;;;;;;1.23;1.02;;;;;;;;;;4957925;28;20054;-81
2023/07/21 08:20:23;;;;;;;2.30;1.60;;;;;;;;;;4970180;28;20524;-82
2023/07/21 08:22:52;;;;;;;2.13;1.30;;;;;;;;;;4986618;28;20061;-82
2023/07/21 08:25:19;;;;;;;5.18;1.50;;;;;;;;;;4971833;28;20082;-81
2023/07/21 08:27:45;;;;;;;4.47;2.58;;;;;;;;;;4989808;28;20054;-82
2023/07/21 08:30:12;;;;;;;4.45;2.15;;;;;;;;;;4990146;28;20038;-82
2023/07/21 08:32:38;;;;;;;2.95;1.70;;;;;;;;;;4991579;28;20727;-83
2023/07/21 08:35:08;;;;;;;3.78;2.72;;;;;;;;;;4974990;28;20688;-81
2023/07/21 08:37:34;;;;;;;2.63;1.73;;;;;;;;;;4974611;28;20462;-82
2023/07/21 08:40:00;;;;;;;4.55;1.85;;;18.50;94.30;;;;;;4976590;28;20038;-81
2023/07/21 08:42:27;;;;;;;4.68;2.42;;;18.90;95.00;;;;;;4955541;28;20180;-82
2023/07/21 08:44:54;;;;;;;3.15;1.67;;;19.00;95.00;;;;;;4973489;28;20042;-81
2023/07/21 08:47:21;;;;;;;4.15;2.10;;;19.00;94.80;;;;;;4974782;28;20042;-81
2023/07/21 08:49:47;;;;;;;2.53;1.65;;;19.10;94.70;;;;;;4960905;28;20058;-82
2023/07/21 08:52:13;;;;;;;2.85;1.73;;;19.10;94.50;;;;;;4990507;28;20046;-81
2023/07/21 08:54:40;;;;;;;3.17;1.67;;;;;;;;;;4971847;28;20169;-81
2023/07/21 08:57:06;;;;;;;3.78;2.00;;;;;;;;;;4991287;28;20062;-81
2023/07/21 08:59:31;;;;;;;5.13;1.98;;;19.20;94.40;;;;;;4978032;28;20069;-81
2023/07/21 09:01:58;;;;;;;3.53;2.20;;;;;;;;;;4959142;28;20046;-82
2023/07/21 09:04:25;;;;;;;3.55;1.98;;;;;;;;;;4975063;28;20152;-81
2023/07/21 09:06:55;;;;;;;3.17;2.15;;;19.30;94.20;;;;;;4986582;28;20077;-82
2023/07/21 09:09:22;;;;;;;3.90;2.80;;;19.30;93.90;;;;;;4992702;28;20050;-82
2023/07/21 09:11:49;;;;;;;3.67;2.33;;;19.30;94.10;;;;;;4974750;28;20034;-84
2023/07/21 09:14:18;;;;;;;3.70;2.40;;;19.30;94.00;;;;;;4965378;28;20139;-83
2023/07/21 09:16:44;;;;;;;4.68;2.95;;;19.40;94.00;;;;;;4958918;28;20085;-83
2023/07/21 09:19:10;;;;;;;4.07;3.25;;;19.30;94.00;;;;;;4990296;28;20049;-83
2023/07/21 09:21:37;;;;;;;4.57;3.45;;;19.30;94.00;;;;;;4958908;28;20038;-83
2023/07/21 09:24:05;;;;;;;3.03;2.03;;;19.30;94.00;;;;;;4989357;28;20039;-83
2023/07/21 09:26:31;;;;;;;4.20;3.30;;;19.30;94.00;;;;;;4994405;28;20045;-83
2023/07/21 09:28:57;;;;;;;3.20;2.55;;;19.30;94.10;;;;;;4975956;28;20073;-83
2023/07/21 09:31:28;;;;;;;5.45;3.70;;;19.30;94.10;;;;;;4992184;28;20039;-83
2023/07/21 09:33:54;;;;;;;5.10;2.58;;;19.30;94.10;;;;;;4985816;28;20039;-83
2023/07/21 09:36:22;;;;;;;3.40;2.63;;;19.30;94.20;;;;;;4942444;28;20073;-82
2023/07/21 09:38:50;;;;;;;3.50;2.70;;;19.20;94.20;;;;;;4991096;28;20077;-82
2023/07/21 09:41:23;;;;;;;6.30;3.30;;;19.30;94.30;;;;;;4967244;28;20046;-82
2023/07/21 09:43:50;;;;;;;4.78;3.15;;;19.30;94.40;;;;;;4990496;28;20091;-82
2023/07/21 09:46:17;;;;;;;4.35;2.95;;;19.30;94.30;;;;;;4972024;28;20072;-81
2023/07/21 09:48:44;;;;;;;3.55;2.35;;;19.30;94.30;;;;;;4957403;28;20046;-79
2023/07/21 09:51:10;;;;;;;4.25;3.10;;;19.30;94.30;;;;;;4955982;28;20047;-80
2023/07/21 09:53:41;;;;;;;5.05;3.20;;;19.30;94.10;;;;;;4983678;28;20046;-82
2023/07/21 09:56:08;;;;;;;3.88;2.90;;;19.30;94.10;;;;;;4974047;28;20042;-81
2023/07/21 09:58:41;;;;;;;3.92;2.72;;;19.40;94.10;;;;;;4968041;28;20137;-81
2023/07/21 10:01:09;;;;;;;4.43;2.40;;;19.40;94.10;;;;;;4972748;28;20042;-81
2023/07/21 10:03:36;;;;;;;3.05;2.20;;;19.50;94.00;;;;;;4975305;28;20278;-81
2023/07/21 10:06:03;;;;;;;3.72;2.20;;;19.60;94.00;;;;;;4973522;28;20093;-81
2023/07/21 10:08:33;;;;;;;7.63;3.08;;;19.60;94.00;;;;;;4956907;28;20049;-82
2023/07/21 10:10:59;;;;;;;5.95;2.30;;;19.70;93.90;;;;;;4967128;28;20043;-81
2023/07/21 10:13:27;;;;;;;3.10;2.00;;;19.80;93.70;;;;;;4958853;28;20089;-81
2023/07/21 10:15:59;;;;;;;3.28;2.05;;;19.90;93.60;;;;;;4952281;28;20046;-81
2023/07/21 10:18:25;;;;;;;2.33;1.75;;;20.00;93.30;;;;;;4974326;28;20038;-81
2023/07/21 10:20:53;;;;;;;3.03;2.13;;;;;;;;;;4965767;28;20047;-81
2023/07/21 10:23:38;;;;;;;3.10;1.88;;;;;;;;;;4989954;28;20125;-81
2023/07/21 10:26:08;;;;;;;2.60;1.80;;;;;;;;;;4966624;28;20097;-81
2023/07/21 10:28:37;;;;;;;2.08;1.50;;;;;;;;;;4956932;28;20038;-81
2023/07/21 10:31:21;;;;;;;2.95;1.83;;;20.10;93.10;;;;;;4973154;28;20069;-81
2023/07/21 10:34:08;;;;;;;3.67;1.60;;;20.40;91.40;;;;;;4989532;28;20034;-81
2023/07/21 10:36:58;;;;;;;3.20;1.63;;;20.40;90.90;;;;;;4957282;28;20038;-81
2023/07/21 10:39:31;;;;;;;2.78;1.98;;;20.50;90.70;;;;;;4958344;28;20193;-81
2023/07/21 10:42:05;;;;;;;2.60;1.88;;;20.50;90.80;;;;;;4942580;28;20193;-81
2023/07/21 10:44:35;;;;;;;1.98;1.48;;;20.60;90.50;;;;;;5005405;28;20057;-81
2023/07/21 10:47:01;;;;;;;2.30;1.30;;;20.60;90.20;;;;;;4987062;28;20046;-81
2023/07/21 10:49:27;;;;;;;3.95;1.75;;;20.60;89.90;;;;;;4974872;28;20051;-81
2023/07/21 10:51:53;;;;;;;2.28;1.60;;;20.60;89.70;;;;;;4972641;28;20499;-81
2023/07/21 10:54:19;;;;;;;2.75;1.55;;;20.60;89.40;;;;;;4973400;28;20030;-81
2023/07/21 10:56:50;;;;;;;2.90;1.90;;;20.60;89.40;;;;;;4957138;28;20042;-81
2023/07/21 10:59:20;;;;;;;3.53;1.63;;;20.50;89.20;;;;;;4958121;28;20049;-81
2023/07/21 11:01:47;;;;;;;3.72;1.85;;;20.50;89.70;;;;;;4989968;28;20050;-81
2023/07/21 11:04:17;;;;;;;5.90;2.40;;;20.40;90.00;;;;;;4971176;28;20038;-80
2023/07/21 11:06:53;;;;;;;3.30;2.28;;;20.40;90.10;;;;;;4988895;28;20050;-81
2023/07/21 11:09:21;;;;;;;2.80;2.03;;;20.40;90.30;;;;;;4957888;28;20050;-81
2023/07/21 11:11:57;;;;;;;4.75;2.45;;;20.30;90.40;;;;;;4973468;28;20046;-81
2023/07/21 11:14:25;;;;;;;3.58;2.35;;;20.30;90.80;;;;;;4970352;28;20038;-81
2023/07/21 11:17:01;;;;;;;3.60;2.10;;;20.30;90.60;;;;;;4973251;28;20040;-82
2023/07/21 11:19:29;;;;;;;3.88;2.85;;;20.30;90.70;;;;;;4988925;28;20562;-81
2023/07/21 11:21:56;;;;;;;5.88;2.58;;;20.30;90.80;;;;;;4989076;28;20043;-81
2023/07/21 11:24:29;;;;;;;7.60;2.60;;;20.20;90.90;;;;;;4953395;28;20058;-81
2023/07/21 11:27:15;;;;;;;6.68;2.95;;;20.30;91.30;;;;;;4989776;28;20034;-81
2023/07/21 11:29:43;;;;;;;4.68;2.65;;;20.30;91.10;;;;;;4949572;28;20050;-79
2023/07/21 11:32:19;;;;;;;8.55;2.78;;;20.30;91.40;;;;;;4972234;28;20038;-81
2023/07/21 11:34:45;;;;;;;7.40;2.83;;;20.30;92.00;;;;;;4969736;28;20042;-81
2023/07/21 11:37:15;;;;;;;7.40;3.67;;;20.30;92.10;;;;;;4951607;28;20042;-81
2023/07/21 11:39:40;;;;;;;6.13;2.92;;;20.20;92.40;;;;;;4972618;28;20359;-82
2023/07/21 11:42:08;;;;;;;7.68;3.35;;;20.20;92.70;;;;;;4936346;28;20038;-80
2023/07/21 11:44:35;;;;;;;7.68;3.28;;;20.20;92.80;;;;;;4974313;28;20073;-84
2023/07/21 11:47:13;;;;;;;6.78;3.13;;;20.10;92.90;;;;;;4955017;28;20031;-79
2023/07/21 11:49:44;;;;;;;8.13;3.17;;;20.00;93.00;;;;;;4968838;28;20051;-83
2023/07/21 11:52:11;;;;;;;6.38;2.72;;;20.00;93.10;;;;;;4951360;28;20035;-80
2023/07/21 11:54:42;;;;;;;4.47;2.85;;;19.90;93.20;;;;;;4971115;28;20046;-84
2023/07/21 11:57:09;;;;;;;5.32;3.00;;;19.80;93.50;;;;;;4968688;28;20069;-81
2023/07/21 11:59:35;;;;;;;10.57;3.50;;;19.70;93.90;;;;;;4951853;28;20386;-81
2023/07/21 12:02:06;;;;;;;8.48;3.35;;;19.60;94.40;;;;;;4969291;28;20043;-80
2023/07/21 12:04:33;;;;;;;5.03;2.78;;;19.50;94.90;;;;;;4973210;28;20608;-80
2023/07/21 12:07:00;;;;;;;7.93;3.67;;;19.40;95.20;;;;;;4966251;28;20225;-80
2023/07/21 12:09:27;;;;;;;6.07;2.92;;;19.30;95.60;;;;;;4985723;28;20050;-80
2023/07/21 12:11:54;;;;;;;5.03;2.97;;;19.30;95.90;;;;;;4982755;28;20525;-81
2023/07/21 12:14:20;;;;;;;8.60;3.92;;;19.20;96.10;;;;;;4987008;28;20054;-82
2023/07/21 12:16:46;;;;;;;9.18;3.45;;;19.20;96.20;;;;;;4973432;28;20046;-85
2023/07/21 12:19:13;;;;;;;8.18;2.78;;;19.10;96.30;;;;;;4951685;28;20042;-85
2023/07/21 12:21:40;;;;;;;8.20;2.53;;;19.00;96.30;;;;;;4940376;28;20046;-85
2023/07/21 12:24:06;;;;;;;4.15;2.33;;;18.90;96.10;;;;;;4948701;28;20081;-85
2023/07/21 12:26:32;;;;;;;4.10;2.33;;;18.80;95.90;;;;;;4957259;28;20486;-83
2023/07/21 12:28:58;;;;;;;3.85;2.28;;;18.70;95.80;;;;;;4995524;28;20045;-83
2023/07/21 12:31:25;;;;;;;3.28;1.88;;;18.60;95.70;;;;;;4989034;28;20046;-81
2023/07/21 12:33:51;;;;;;;5.32;2.55;;;18.60;95.80;;;;;;4993957;28;20042;-86
2023/07/21 12:36:23;;;;;;;3.47;2.15;;;18.60;95.80;;;;;;4972464;28;20343;-81
2023/07/21 12:38:49;;;;;;;3.45;1.95;;;18.70;95.80;;;;;;4981974;28;20034;-80
2023/07/21 12:41:16;;;;;;;3.50;2.28;;;18.70;95.60;;;;;;4970412;28;20056;-79
2023/07/21 12:43:42;;;;;;;7.80;2.45;;;18.80;95.60;;;;;;4988047;28;20105;-80
2023/07/21 12:46:11;;;;;;;4.22;2.08;;;18.70;95.50;;;;;;4974547;28;20053;-80
2023/07/21 12:48:37;;;;;;;4.30;1.60;;;18.80;95.50;;;;;;4968425;28;20169;-80
2023/07/21 12:51:04;;;;;;;3.08;1.67;;;18.80;95.40;;;;;;4985302;28;20102;-79
2023/07/21 12:53:30;;;;;;;5.50;2.25;;;18.80;95.40;;;;;;4968116;28;20034;-79
2023/07/21 12:55:57;;;;;;;4.63;1.83;;;18.70;95.40;;;;;;4968364;28;20490;-79
2023/07/21 12:58:23;;;;;;;4.60;2.22;;;18.70;95.50;;;;;;4987153;28;20660;-80
2023/07/21 13:00:50;;;;;;;4.28;2.00;;;18.70;95.60;;;;;;4972146;28;20034;-80
2023/07/21 13:03:25;;;;;;;3.50;1.70;;;18.60;95.70;;;;;;4958271;28;20041;-80
2023/07/21 13:05:51;;;;;;;3.35;2.17;;;18.70;95.70;;;;;;4972188;28;20042;-80
2023/07/21 13:08:16;;;;;;;2.72;1.60;;;18.70;95.70;;;;;;4973182;28;20093;-80
2023/07/21 13:10:42;;;;;;;2.80;1.80;;;18.80;95.70;;;;;;4939629;28;20049;-79
2023/07/21 13:13:08;;;;;;;2.65;1.77;;;18.80;95.60;;;;;;4973065;28;20042;-80
2023/07/21 13:15:34;;;;;;;2.03;1.23;;;18.70;95.50;;;;;;4957175;28;20046;-80
2023/07/21 13:18:00;;;;;;;3.25;1.58;;;18.80;95.40;;;;;;4957751;28;20077;-80
2023/07/21 13:20:26;;;;;;;3.15;1.65;;;18.80;95.30;;;;;;4974015;28;20100;-80
2023/07/21 13:22:52;;;;;;;1.95;1.05;;;18.80;95.20;;;;;;4974593;28;20046;-80
2023/07/21 13:25:17;;;;;;;2.13;1.52;;;18.80;95.10;;;;;;4958009;28;20478;-80
2023/07/21 13:27:43;;;;;;;2.13;1.40;;;18.80;95.10;;;;;;4958938;28;20043;-80
2023/07/21 13:30:09;;;;;;;3.28;1.65;;;18.80;95.00;;;;;;4974767;28;20045;-80
2023/07/21 13:32:35;;;;;;;2.83;1.48;;;18.80;95.10;;;;;;4959095;28;20418;-80
2023/07/21 13:35:01;;;;;;;3.83;1.83;;;18.80;95.10;;;;;;4959436;28;20039;-80
2023/07/21 13:37:27;;;;;;;2.20;1.60;;;18.70;95.30;;;;;;4969381;28;20456;-80
2023/07/21 13:39:53;;;;;;;2.38;1.50;;;18.70;95.30;;;;;;4975336;28;20066;-81
2023/07/21 13:42:19;;;;;;;2.63;1.73;;;18.70;95.40;;;;;;4991571;28;20478;-81
2023/07/21 13:44:47;;;;;;;2.58;1.42;;;18.70;95.40;;;;;;4975118;28;20043;-81
2023/07/21 13:47:13;;;;;;;1.48;1.30;;;18.70;95.40;;;;;;4958397;28;20126;-80
2023/07/21 13:49:39;;;;;;;1.92;1.30;;;18.70;95.40;;;;;;4960555;28;20056;-80
2023/07/21 13:52:06;;;;;;;2.45;1.38;;;18.70;95.40;;;;;;4977236;28;20402;-80
2023/07/21 13:54:32;;;;;;;2.25;1.90;;;18.70;95.50;;;;;;4958429;28;20042;-80
2023/07/21 13:56:57;;;;;;;2.60;1.65;;;18.60;95.60;;;;;;4991519;28;20041;-80